createdAt,value
2018-12-31T00:02:06.209Z,101663.61
2018-12-31T00:07:09.994Z,101650.56
2018-12-31T00:12:13.770Z,101653.16
2018-12-31T00:17:17.547Z,101653.16
2018-12-31T00:22:21.329Z,101640.98
2018-12-31T00:27:25.105Z,101644.63
2018-12-31T00:32:28.870Z,101644.63
2018-12-31T00:37:32.635Z,101643.76
2018-12-31T00:42:36.405Z,101650.47
2018-12-31T00:47:40.182Z,101663.03
2018-12-31T00:52:43.951Z,101667.44
2018-12-31T00:57:47.720Z,101668.72
2018-12-31T01:02:51.527Z,101671.66
2018-12-31T01:07:55.414Z,101673.48
2018-12-31T01:12:59.186Z,101673.48
2018-12-31T01:18:02.974Z,101669.74
2018-12-31T01:23:06.741Z,101668.88
2018-12-31T01:28:10.544Z,101668.88
2018-12-31T01:33:14.278Z,101677.70
2018-12-31T01:38:18.044Z,101680.87
2018-12-31T01:43:21.825Z,101672.27
2018-12-31T01:48:25.598Z,101662.17
2018-12-31T01:53:29.369Z,101667.06
2018-12-31T01:58:33.134Z,101666.09
2018-12-31T02:03:36.904Z,101672.34
2018-12-31T02:08:40.670Z,101672.34
2018-12-31T02:13:44.475Z,101669.74
2018-12-31T02:18:48.289Z,101676.45
2018-12-31T02:23:52.068Z,101682.21
2018-12-31T02:28:55.831Z,101693.52
2018-12-31T02:33:59.595Z,101687.77
2018-12-31T02:39:03.714Z,101724.02
2018-12-31T02:44:07.471Z,101709.16
2018-12-31T02:49:11.248Z,101709.16
2018-12-31T02:54:15.296Z,101690.94
2018-12-31T02:59:19.065Z,101687.38
2018-12-31T03:04:22.829Z,101687.38
2018-12-31T03:09:26.605Z,101700.71
2018-12-31T03:14:30.377Z,101688.63
2018-12-31T03:19:34.147Z,101688.63
2018-12-31T03:24:37.930Z,101687.58
2018-12-31T03:29:41.693Z,101687.58
2018-12-31T03:34:45.468Z,101690.36
2018-12-31T03:39:49.238Z,101686.23
2018-12-31T03:44:54.182Z,101686.23
2018-12-31T03:49:57.946Z,101696.02
2018-12-31T03:55:01.711Z,101696.02
2018-12-31T04:00:06.651Z,101706.86
2018-12-31T04:05:10.417Z,101699.19
2018-12-31T04:10:14.190Z,101699.19
2018-12-31T04:15:17.951Z,101712.61
2018-12-31T04:20:21.715Z,101701.58
2018-12-31T04:25:25.478Z,101701.58
2018-12-31T04:30:29.251Z,101721.42
2018-12-31T04:35:33.017Z,101717.25
2018-12-31T04:40:36.783Z,101721.55
2018-12-31T04:45:40.570Z,101720.78
2018-12-31T04:50:44.336Z,101722.66
2018-12-31T04:55:48.129Z,101722.66
2018-12-31T05:00:51.916Z,101716.22
2018-12-31T05:05:55.729Z,101736.53
2018-12-31T05:10:59.513Z,101717.89
2018-12-31T05:16:03.297Z,101717.59
2018-12-31T05:21:07.075Z,101717.59
2018-12-31T05:26:10.875Z,101716.05
2018-12-31T05:31:14.647Z,101729.91
2018-12-31T05:36:18.443Z,101741.69
2018-12-31T05:41:22.244Z,101741.69
2018-12-31T05:46:26.048Z,101747.59
2018-12-31T05:51:29.813Z,101719.70
2018-12-31T05:56:33.611Z,101732.29
2018-12-31T06:01:37.401Z,101732.29
2018-12-31T06:06:41.194Z,101748.95
2018-12-31T06:11:44.982Z,101745.97
2018-12-31T06:16:48.796Z,101748.74
2018-12-31T06:21:52.549Z,101737.20
2018-12-31T06:26:56.333Z,101740.84
2018-12-31T06:32:00.119Z,101740.84
2018-12-31T06:37:03.932Z,101750.41
2018-12-31T06:42:07.702Z,101766.97
2018-12-31T06:47:11.493Z,101766.97
2018-12-31T06:52:15.277Z,101796.57
2018-12-31T06:57:19.059Z,101785.84
2018-12-31T07:02:22.835Z,101780.88
2018-12-31T07:07:26.634Z,101801.38
2018-12-31T07:12:30.456Z,101801.38
2018-12-31T07:17:34.266Z,101807.04
2018-12-31T07:22:38.119Z,101807.04
2018-12-31T07:27:41.915Z,101785.27
2018-12-31T07:32:45.688Z,101785.27
2018-12-31T07:37:49.473Z,101781.17
2018-12-31T07:42:53.266Z,101788.73
2018-12-31T07:47:57.046Z,101802.16
2018-12-31T07:53:00.821Z,101802.55
2018-12-31T07:58:04.602Z,101802.55
2018-12-31T08:03:08.388Z,101799.23
2018-12-31T08:08:12.179Z,101803.27
2018-12-31T08:13:15.965Z,101809.89
2018-12-31T08:18:19.752Z,101818.41
2018-12-31T08:23:23.537Z,101824.34
2018-12-31T08:28:27.349Z,101848.59
2018-12-31T08:33:31.167Z,101848.59
2018-12-31T08:38:34.950Z,101857.31
2018-12-31T08:43:38.730Z,101837.73
2018-12-31T08:48:42.501Z,101824.66
2018-12-31T08:53:46.287Z,101824.66
2018-12-31T08:58:50.063Z,101819.36
2018-12-31T09:03:53.822Z,101819.97
2018-12-31T09:08:57.577Z,101819.97
2018-12-31T09:14:01.345Z,101816.44
2018-12-31T09:19:05.133Z,101816.44
2018-12-31T09:24:08.896Z,101826.53
2018-12-31T09:29:12.658Z,101828.56
2018-12-31T09:34:16.430Z,101828.56
2018-12-31T09:39:20.205Z,101817.69
2018-12-31T09:44:23.982Z,101817.69
2018-12-31T09:49:27.753Z,101825.13
2018-12-31T09:54:31.518Z,101813.54
2018-12-31T09:59:35.278Z,101818.42
2018-12-31T10:04:39.043Z,101813.93
2018-12-31T10:09:42.818Z,101813.93
2018-12-31T10:14:46.586Z,101810.77
2018-12-31T10:19:50.345Z,101810.77
2018-12-31T10:24:54.134Z,101808.09
2018-12-31T10:29:57.904Z,101807.05
2018-12-31T10:35:01.701Z,101809.82
2018-12-31T10:40:07.783Z,101809.82
2018-12-31T10:45:11.548Z,101814.09
2018-12-31T10:50:15.313Z,101789.14
2018-12-31T10:55:19.086Z,101791.51
2018-12-31T11:00:22.890Z,101782.12
2018-12-31T11:05:26.660Z,101779.14
2018-12-31T11:10:30.702Z,101779.14
2018-12-31T11:15:34.472Z,101781.34
2018-12-31T11:20:38.247Z,101772.83
2018-12-31T11:25:42.018Z,101776.77
2018-12-31T11:30:45.791Z,101774.26
2018-12-31T11:35:49.557Z,101765.95
2018-12-31T11:40:53.337Z,101767.47
2018-12-31T11:45:57.105Z,101762.88
2018-12-31T11:51:00.868Z,101761.15
2018-12-31T11:56:04.651Z,101750.81
2018-12-31T12:01:08.409Z,101750.81
2018-12-31T12:06:12.192Z,101737.48
2018-12-31T12:11:15.970Z,101744.66
2018-12-31T12:16:19.748Z,101741.03
2018-12-31T12:21:23.511Z,101741.77
2018-12-31T12:26:27.315Z,101736.64
2018-12-31T12:31:31.168Z,101738.06
2018-12-31T12:36:34.934Z,101744.98
2018-12-31T12:41:38.693Z,101744.98
2018-12-31T12:46:42.458Z,101734.50
2018-12-31T12:51:46.222Z,101728.01
2018-12-31T12:56:49.990Z,101742.05
2018-12-31T13:01:53.782Z,101742.05
2018-12-31T13:06:57.799Z,101742.45
2018-12-31T13:12:02.795Z,101742.45
2018-12-31T13:17:06.569Z,101738.13
2018-12-31T13:22:10.343Z,101732.52
2018-12-31T13:27:14.133Z,101734.73
2018-12-31T13:32:17.896Z,101728.84
2018-12-31T13:37:21.658Z,101727.81
2018-12-31T13:42:25.443Z,101728.89
2018-12-31T13:47:29.494Z,101730.38
2018-12-31T13:52:33.255Z,101730.38
2018-12-31T13:57:37.299Z,101732.88
2018-12-31T14:02:41.064Z,101732.88
2018-12-31T14:07:45.103Z,101748.18
2018-12-31T14:12:48.861Z,101747.79
2018-12-31T14:17:52.902Z,101751.64
2018-12-31T14:22:56.684Z,101751.64
2018-12-31T14:28:00.934Z,101764.36
2018-12-31T14:33:04.696Z,101769.96
2018-12-31T14:38:08.830Z,101768.10
2018-12-31T14:43:12.603Z,101771.23
2018-12-31T14:48:16.367Z,101773.05
2018-12-31T14:53:20.129Z,101770.36
2018-12-31T14:58:25.331Z,101770.36
2018-12-31T15:03:29.151Z,101766.98
2018-12-31T15:08:32.916Z,101769.84
2018-12-31T15:13:36.703Z,101776.07
2018-12-31T15:18:40.450Z,101772.83
2018-12-31T15:23:44.230Z,101774.16
2018-12-31T15:28:47.999Z,101761.91
2018-12-31T15:33:51.800Z,101761.91
2018-12-31T15:38:55.576Z,101752.95
2018-12-31T15:44:01.443Z,101756.45
2018-12-31T15:49:05.213Z,101760.84
2018-12-31T15:54:08.987Z,101761.72
2018-12-31T15:59:12.763Z,101748.55
2018-12-31T16:04:16.538Z,101747.91
2018-12-31T16:09:20.312Z,101747.91
2018-12-31T16:14:24.084Z,101751.23
2018-12-31T16:19:27.853Z,101747.20
2018-12-31T16:24:31.621Z,101750.36
2018-12-31T16:29:35.405Z,101749.88
2018-12-31T16:34:39.181Z,101749.88
2018-12-31T16:39:42.950Z,101749.88
2018-12-31T16:44:46.721Z,101749.02
2018-12-31T16:49:50.481Z,101743.03
2018-12-31T16:54:54.523Z,101744.91
2018-12-31T16:59:58.299Z,101732.77
2018-12-31T17:05:02.523Z,101722.04
2018-12-31T17:10:08.232Z,101728.27
2018-12-31T17:15:12.034Z,101727.47
2018-12-31T17:20:15.808Z,101727.47
2018-12-31T17:25:19.580Z,101738.20
2018-12-31T17:30:23.351Z,101738.20
2018-12-31T17:35:27.124Z,101725.65
2018-12-31T17:40:30.915Z,101725.65
2018-12-31T17:45:34.742Z,101728.92
2018-12-31T17:50:38.527Z,101729.11
2018-12-31T17:55:42.309Z,101733.13
2018-12-31T18:00:46.856Z,101733.13
2018-12-31T18:05:50.635Z,101731.08
2018-12-31T18:10:54.429Z,101736.52
2018-12-31T18:15:58.225Z,101752.83
2018-12-31T18:21:02.330Z,101746.56
2018-12-31T18:26:06.109Z,101753.00
2018-12-31T18:31:11.026Z,101753.00
2018-12-31T18:36:14.811Z,101726.98
2018-12-31T18:41:18.598Z,101724.72
2018-12-31T18:46:23.438Z,101722.90
2018-12-31T18:51:27.197Z,101722.90
2018-12-31T18:56:30.986Z,101733.06
2018-12-31T19:01:35.041Z,101733.06
2018-12-31T19:06:38.822Z,101732.00
2018-12-31T19:11:42.982Z,101732.00
2018-12-31T19:16:49.120Z,101730.28
2018-12-31T19:21:53.284Z,101730.03
2018-12-31T19:26:57.455Z,101726.50
2018-12-31T19:32:01.243Z,101718.39
2018-12-31T19:37:05.021Z,101719.20
2018-12-31T19:42:08.817Z,101719.20
2018-12-31T19:47:12.607Z,101722.16
2018-12-31T19:52:16.388Z,101717.56
2018-12-31T19:57:20.166Z,101717.56
2018-12-31T20:02:23.970Z,101718.04
2018-12-31T20:07:27.753Z,101702.80
2018-12-31T20:12:32.804Z,101702.80
2018-12-31T20:17:36.584Z,101699.06
2018-12-31T20:22:40.364Z,101692.55
2018-12-31T20:27:44.157Z,101697.43
2018-12-31T20:32:47.933Z,101697.43
2018-12-31T20:37:52.103Z,101692.55
2018-12-31T20:42:55.972Z,101695.52
2018-12-31T20:48:01.952Z,101695.52
2018-12-31T20:53:05.243Z,101696.57
2018-12-31T20:58:09.022Z,101688.99
2018-12-31T21:03:12.793Z,101686.12
2018-12-31T21:08:16.566Z,101687.77
2018-12-31T21:13:20.369Z,101683.67
2018-12-31T21:18:24.183Z,101679.32
2018-12-31T21:23:27.979Z,101678.31
2018-12-31T21:28:31.854Z,101674.66
2018-12-31T21:33:35.632Z,101670.55
2018-12-31T21:38:39.427Z,101666.29
2018-12-31T21:43:43.494Z,101664.70
2018-12-31T21:48:47.284Z,101657.52
2018-12-31T21:53:51.071Z,101657.52
2018-12-31T21:58:54.861Z,101648.89
2018-12-31T22:03:58.658Z,101647.06
2018-12-31T22:09:02.447Z,101647.06
2018-12-31T22:14:06.239Z,101640.63
2018-12-31T22:19:10.040Z,101619.16
2018-12-31T22:24:13.888Z,101614.66
2018-12-31T22:29:17.681Z,101614.66
2018-12-31T22:34:21.471Z,101610.05
2018-12-31T22:39:25.262Z,101606.89
2018-12-31T22:44:29.053Z,101606.89
2018-12-31T22:49:32.847Z,101587.38
2018-12-31T22:54:37.829Z,101590.12
2018-12-31T22:59:41.637Z,101586.25
2018-12-31T23:04:45.435Z,101581.91
2018-12-31T23:09:49.228Z,101575.86
2018-12-31T23:14:53.018Z,101562.06
2018-12-31T23:19:57.099Z,101562.06
2018-12-31T23:25:00.905Z,101536.36
2018-12-31T23:30:06.406Z,101535.78
2018-12-31T23:35:10.276Z,101535.78
2018-12-31T23:40:14.072Z,101526.70
2018-12-31T23:45:17.861Z,101530.89
2018-12-31T23:50:21.682Z,101521.02
2018-12-31T23:55:25.464Z,101521.02
